メインページ
METAR-TAF:

METAR-TAF

空港 :

イースター島, チリ

マタベリ国際空港

緯度: 27-09S, 経度: 109-25W, 海抜: 51m

現時点の気象観測

当レポートは26分前の06:00(UTC)に作成
北/北西の風 8kt
気温 21°C
湿度 83%
気圧 1019 hPa
視程10km以上
高度2000ftの千切れ雲あり

METAR: SCIP 140600Z 34008KT 9999 BKN020 21/18 Q1019 NOSIG

時間: 01:26 (06:26 UTC)

予報

当レポートは2時間8分前の04:18(UTC)に作成
予報は14日の 06時(UTC)から 15日の 06時(UTC)まで有効
北/北西の風 8kt
視程10km以上
高度2000ftの雲は散在している
高度25000ftの雲は散在している
14日の 10時(UTC)から 14日の 14時(UTC)まで一時的に
北/北東の風 13kt
視程: 7000m
高度2000ftの千切れ雲あり
高度20000ftの千切れ雲あり
弱いにわか雨
14日の 16時(UTC)から 14日の 18時(UTC)まで徐々に
北/北西の風 13kt
高度2000ftの雲は散在している
高度10000ftの雲は散在している
高度20000ftの雲は散在している
14日の 19時(UTC)から 15日の 00時(UTC)まで一時的に
北/北東の風 18kt
高度2000ftの雲は散在している
高度10000ftの千切れ雲あり
高度25000ftの雲は散在している
15日の 02時(UTC)から 15日の 04時(UTC)まで徐々に
北/北西の風 8kt
高度2000ftの雲は散在している
高度5000ftの雲は散在している
高度10000ftの千切れ雲あり

TAF: SCIP 140418Z 1406/1506 33008KT 9999 SCT020 SCT250 TN20/1411Z TX25 /1419Z TEMPO 1410/1414 03013KT 7000 -SHRA BKN020 BKN200 BECMG 1416/1418 33013KT SCT020 SCT100 SCT200 TEMPO 1419/1500 03018KT SCT020 BKN100 SCT250 BECMG 1502/1504 33008KT SCT020 SCT050 BKN100

4,000以上の空港の気象観測と天気予報(METAR報とTAF報)

利用可能な観測所は地図上に黄色い丸と赤い丸で示す。

丸の上にカーソルを重ねると観測所名を参照できる。

次にクリックすると気象観測と天気予報を参照できる。

マップの切り替え:黒色「×」印の緑ボタンをクリックして拡大、「-」印の緑ボタンをクリックして縮小、緑色の三角印をクリックして隣りの地図に切り替え


METAR-TAF: